createdAt,value
2019-02-19T00:03:49.515Z,91.50
2019-02-19T00:08:56.799Z,91.40
2019-02-19T00:14:03.129Z,91.60
2019-02-19T00:19:09.424Z,91.70
2019-02-19T00:24:15.696Z,91.80
2019-02-19T00:29:21.913Z,91.80
2019-02-19T00:34:28.185Z,91.70
2019-02-19T00:39:34.448Z,91.70
2019-02-19T00:44:40.675Z,91.80
2019-02-19T00:49:46.969Z,91.90
2019-02-19T00:54:53.301Z,91.90
2019-02-19T01:00:00.773Z,92.00
2019-02-19T01:05:08.729Z,92.10
2019-02-19T01:10:14.965Z,92.60
2019-02-19T01:15:25.496Z,92.70
2019-02-19T01:20:29.141Z,93.00
2019-02-19T01:25:35.370Z,93.10
2019-02-19T01:30:41.695Z,93.30
2019-02-19T01:35:48.060Z,93.70
2019-02-19T01:40:54.345Z,94.00
2019-02-19T01:46:00.571Z,94.70
2019-02-19T01:51:06.797Z,94.30
2019-02-19T01:56:13.019Z,94.60
2019-02-19T02:01:19.214Z,94.50
2019-02-19T02:06:25.541Z,94.80
2019-02-19T02:11:31.810Z,94.70
2019-02-19T02:16:38.107Z,95.20
2019-02-19T02:21:44.322Z,95.70
2019-02-19T02:26:50.546Z,96.50
2019-02-19T02:31:56.781Z,97.00
2019-02-19T02:37:04.830Z,97.40
2019-02-19T02:42:11.160Z,97.60
2019-02-19T02:47:17.403Z,97.90
2019-02-19T02:52:23.966Z,98.10
2019-02-19T02:57:30.607Z,98.20
2019-02-19T03:02:37.006Z,98.70
2019-02-19T03:07:55.548Z,98.60
2019-02-19T03:13:01.925Z,98.90
2019-02-19T03:18:08.242Z,99.00
2019-02-19T03:23:14.550Z,99.20
2019-02-19T03:28:20.832Z,99.20
2019-02-19T03:33:27.375Z,99.20
2019-02-19T03:38:33.688Z,99.00
2019-02-19T03:43:40.008Z,98.90
2019-02-19T03:48:46.219Z,99.10
2019-02-19T03:53:52.533Z,99.20
2019-02-19T03:58:59.237Z,99.10
2019-02-19T04:04:05.495Z,99.40
2019-02-19T04:09:11.726Z,99.30
2019-02-19T04:14:17.929Z,99.50
2019-02-19T04:19:24.219Z,99.60
2019-02-19T04:24:30.490Z,99.70
2019-02-19T04:29:39.586Z,99.90
2019-02-19T04:34:46.073Z,99.90
2019-02-19T04:39:52.435Z,99.90
2019-02-19T04:44:58.688Z,99.90
2019-02-19T04:50:06.111Z,99.90
2019-02-19T04:55:12.421Z,99.90
2019-02-19T05:00:18.959Z,99.90
2019-02-19T05:05:25.268Z,99.90
2019-02-19T05:10:31.653Z,99.90
2019-02-19T05:15:37.874Z,99.90
2019-02-19T05:20:44.183Z,99.90
2019-02-19T05:25:50.362Z,99.90
2019-02-19T05:30:56.611Z,99.90
2019-02-19T05:36:02.838Z,99.90
2019-02-19T05:41:09.036Z,99.90
2019-02-19T05:46:17.122Z,99.90
2019-02-19T05:51:23.604Z,99.90
2019-02-19T05:56:29.927Z,99.90
2019-02-19T06:01:36.228Z,99.90
2019-02-19T06:06:44.255Z,99.90
2019-02-19T06:11:50.622Z,99.90
2019-02-19T06:16:58.833Z,99.90
2019-02-19T06:22:05.687Z,99.90
2019-02-19T06:27:11.977Z,99.90
2019-02-19T06:32:18.234Z,99.90
2019-02-19T06:37:24.579Z,99.90
2019-02-19T06:42:31.068Z,99.90
2019-02-19T06:47:37.405Z,99.90
2019-02-19T06:52:43.959Z,99.90
2019-02-19T06:57:55.298Z,99.90
2019-02-19T07:03:11.987Z,99.90
2019-02-19T07:08:18.539Z,99.90
2019-02-19T07:13:24.960Z,99.90
2019-02-19T07:18:31.171Z,99.90
2019-02-19T07:23:37.475Z,99.90
2019-02-19T07:28:45.494Z,99.90
2019-02-19T07:33:53.102Z,99.90
2019-02-19T07:38:59.699Z,99.90
2019-02-19T07:44:06.068Z,99.90
2019-02-19T07:49:12.377Z,99.90
2019-02-19T07:54:18.637Z,99.90
2019-02-19T07:59:24.984Z,99.90
2019-02-19T08:04:31.337Z,99.90
2019-02-19T08:09:37.841Z,99.90
2019-02-19T08:14:44.145Z,99.90
2019-02-19T08:19:50.677Z,99.90
2019-02-19T08:24:57.286Z,99.90
2019-02-19T08:30:03.665Z,99.90
2019-02-19T08:35:11.954Z,99.90
2019-02-19T08:40:27.276Z,99.90
2019-02-19T08:45:33.660Z,99.90
2019-02-19T08:50:40.187Z,99.90
2019-02-19T08:55:46.850Z,99.90
2019-02-19T09:00:53.457Z,99.90
2019-02-19T09:06:01.703Z,99.60
2019-02-19T09:11:13.987Z,99.00
2019-02-19T09:16:20.391Z,98.30
2019-02-19T09:21:26.707Z,97.60
2019-02-19T09:26:33.152Z,96.80
2019-02-19T09:31:39.696Z,95.50
2019-02-19T09:36:47.165Z,94.60
2019-02-19T09:41:55.567Z,94.10
2019-02-19T09:47:02.640Z,93.00
2019-02-19T09:52:09.289Z,92.80
2019-02-19T09:57:15.714Z,93.60
2019-02-19T10:02:22.150Z,93.70
2019-02-19T10:07:28.644Z,93.40
2019-02-19T10:12:36.023Z,93.50
2019-02-19T10:17:42.352Z,94.00
2019-02-19T10:22:48.565Z,92.00
2019-02-19T10:27:55.212Z,90.90
2019-02-19T10:33:01.494Z,89.00
2019-02-19T10:38:07.776Z,90.10
2019-02-19T10:43:14.024Z,89.70
2019-02-19T10:48:20.307Z,90.30
2019-02-19T10:53:26.667Z,90.20
2019-02-19T10:58:32.899Z,90.30
2019-02-19T11:03:39.237Z,90.70
2019-02-19T11:08:45.587Z,90.90
2019-02-19T11:13:51.811Z,90.00
2019-02-19T11:18:58.180Z,88.50
2019-02-19T11:24:05.371Z,87.70
2019-02-19T11:29:11.909Z,88.10
2019-02-19T11:34:18.363Z,87.80
2019-02-19T11:39:24.909Z,89.30
2019-02-19T11:44:31.155Z,88.10
2019-02-19T11:49:37.478Z,87.00
2019-02-19T11:54:43.675Z,88.20
2019-02-19T11:59:51.757Z,88.20
2019-02-19T12:04:58.456Z,84.70
2019-02-19T12:10:07.069Z,86.00
2019-02-19T12:15:14.529Z,84.10
2019-02-19T12:20:20.927Z,83.50
2019-02-19T12:25:28.976Z,84.30
2019-02-19T12:30:35.303Z,85.20
2019-02-19T12:35:41.984Z,85.40
2019-02-19T12:40:48.198Z,83.90
2019-02-19T12:45:54.548Z,80.90
2019-02-19T12:51:00.828Z,79.30
2019-02-19T12:56:07.111Z,79.80
2019-02-19T13:01:13.380Z,80.80
2019-02-19T13:06:19.693Z,80.40
2019-02-19T13:11:25.922Z,81.70
2019-02-19T13:16:33.395Z,81.90
2019-02-19T13:21:39.650Z,81.00
2019-02-19T13:26:46.371Z,80.90
2019-02-19T13:31:52.803Z,82.10
2019-02-19T13:36:59.375Z,80.50
2019-02-19T13:42:05.635Z,80.90
2019-02-19T13:47:12.305Z,81.80
2019-02-19T13:52:37.682Z,78.10
2019-02-19T13:57:44.015Z,78.10
2019-02-19T14:02:51.215Z,79.30
2019-02-19T14:07:57.746Z,79.20
2019-02-19T14:13:04.078Z,80.40
2019-02-19T14:18:11.574Z,79.30
2019-02-19T14:23:41.688Z,78.70
2019-02-19T14:29:08.624Z,77.30
2019-02-19T14:34:36.748Z,78.40
2019-02-19T14:40:09.835Z,78.60
2019-02-19T14:45:34.399Z,79.20
2019-02-19T14:50:58.731Z,79.70
2019-02-19T14:56:25.411Z,82.40
2019-02-19T15:01:45.909Z,81.60
2019-02-19T15:07:10.100Z,82.60
2019-02-19T15:13:08.603Z,81.70
2019-02-19T15:18:42.929Z,80.80
2019-02-19T15:24:02.844Z,82.60
2019-02-19T15:29:26.766Z,83.20
2019-02-19T15:34:49.410Z,84.40
2019-02-19T15:40:29.857Z,85.00
2019-02-19T15:46:00.978Z,85.10
2019-02-19T15:51:22.241Z,85.50
2019-02-19T15:56:47.504Z,84.50
2019-02-19T16:02:03.804Z,84.80
2019-02-19T16:07:29.107Z,83.60
2019-02-19T16:12:59.378Z,83.00
2019-02-19T16:18:16.547Z,83.20
2019-02-19T16:23:50.951Z,83.50
2019-02-19T16:29:14.921Z,84.70
2019-02-19T16:34:40.234Z,84.90
2019-02-19T16:40:03.698Z,84.80
2019-02-19T16:45:29.437Z,85.00
2019-02-19T16:51:01.001Z,85.30
2019-02-19T16:56:14.034Z,86.50
2019-02-19T17:01:45.769Z,85.80
2019-02-19T17:07:06.779Z,85.70
2019-02-19T17:12:20.196Z,87.10
2019-02-19T17:17:39.498Z,86.90
2019-02-19T17:23:10.573Z,87.30
2019-02-19T17:28:41.758Z,87.40
2019-02-19T17:34:01.775Z,88.50
2019-02-19T17:39:24.778Z,89.50
2019-02-19T17:45:02.260Z,90.00
2019-02-19T17:50:38.517Z,90.40
2019-02-19T17:55:58.817Z,90.60
2019-02-19T18:01:23.124Z,90.40
2019-02-19T18:06:53.978Z,90.90
2019-02-19T18:12:15.180Z,90.90
2019-02-19T18:17:26.849Z,91.40
2019-02-19T18:22:33.105Z,91.30
2019-02-19T18:27:41.270Z,91.60
2019-02-19T18:32:49.353Z,92.10
2019-02-19T18:37:55.668Z,92.20
2019-02-19T18:43:01.968Z,91.90
2019-02-19T18:48:09.239Z,92.20
2019-02-19T18:53:15.487Z,91.80
2019-02-19T18:58:21.947Z,92.40
2019-02-19T19:03:28.211Z,92.00
2019-02-19T19:08:34.501Z,92.30
2019-02-19T19:13:40.861Z,92.70
2019-02-19T19:18:47.375Z,92.50
2019-02-19T19:23:53.773Z,92.50
2019-02-19T19:29:00.096Z,92.50
2019-02-19T19:34:06.476Z,92.70
2019-02-19T19:39:12.755Z,92.80
2019-02-19T19:44:18.979Z,92.60
2019-02-19T19:49:25.287Z,92.80
2019-02-19T19:54:31.645Z,92.90
2019-02-19T19:59:38.074Z,92.90
2019-02-19T20:04:45.632Z,93.40
2019-02-19T20:09:53.496Z,93.10
2019-02-19T20:14:59.978Z,93.20
2019-02-19T20:20:07.047Z,93.10
2019-02-19T20:25:13.777Z,93.40
2019-02-19T20:30:20.095Z,93.30
2019-02-19T20:35:26.424Z,93.50
2019-02-19T20:40:32.819Z,93.80
2019-02-19T20:45:39.584Z,94.00
2019-02-19T20:50:46.908Z,94.20
2019-02-19T20:55:53.218Z,94.00
2019-02-19T21:01:01.311Z,94.20
2019-02-19T21:06:10.387Z,94.10
2019-02-19T21:11:17.970Z,94.30
2019-02-19T21:16:24.369Z,94.40
2019-02-19T21:21:30.599Z,94.70
2019-02-19T21:26:36.933Z,94.70
2019-02-19T21:31:43.518Z,94.40
2019-02-19T21:36:50.058Z,94.80
2019-02-19T21:41:57.358Z,94.70
2019-02-19T21:47:03.777Z,94.80
2019-02-19T21:52:11.095Z,95.30
2019-02-19T21:57:18.490Z,95.20
2019-02-19T22:02:25.055Z,95.20
2019-02-19T22:07:31.895Z,95.40
2019-02-19T22:12:38.516Z,95.60
2019-02-19T22:17:44.924Z,95.70
2019-02-19T22:22:52.328Z,96.20
2019-02-19T22:27:58.623Z,96.00
2019-02-19T22:33:05.423Z,95.80
2019-02-19T22:38:11.715Z,96.00
2019-02-19T22:43:17.944Z,96.10
2019-02-19T22:48:24.294Z,96.00
2019-02-19T22:54:04.321Z,96.10
2019-02-19T22:59:10.746Z,96.10
2019-02-19T23:04:16.961Z,96.20
2019-02-19T23:09:23.264Z,96.50
2019-02-19T23:14:29.468Z,96.40
2019-02-19T23:19:36.750Z,96.50
2019-02-19T23:24:42.988Z,96.70
2019-02-19T23:29:49.353Z,96.70
2019-02-19T23:35:21.154Z,96.80
2019-02-19T23:40:27.424Z,96.90
2019-02-19T23:45:33.613Z,97.40
2019-02-19T23:50:39.858Z,97.30
2019-02-19T23:55:46.072Z,97.70
